メインページ
METAR-TAF:

METAR-TAF

空港 :

ベオグラード・ニコラ・テスラ空港

ベオグラード, セルビア

緯度: 44-49N, 経度: 020-17E, 海抜: 96m

現時点の気象観測

当レポートは18分前の07:30(UTC)に作成
西/南西の風 6kt
気温 20°C
湿度 100%
気圧 1009 hPa
視程: 5000m
高度400ftの雲は散在している
高度3300ftの雲は散在している

METAR: LYBE 170730Z 24006KT 5000 BR SCT004 SCT033 20/20 Q1009 TEMPO BKN004

時間: 09:48 (07:48 UTC)

予報

当レポートは2時間48分前の05:00(UTC)に作成
予報は17日の 06時(UTC)から 18日の 06時(UTC)まで有効
西の風 8kt
視程10km以上
高度4000ftの雲は散在している
17日の 06時(UTC)から 17日の 09時(UTC)まで一時的に
変向風 20kt
視程: 4000m
高度3300ftの雲は散在している, 塔状積雲.
高度4000ftの千切れ雲あり
にわか雨
17日の 11時(UTC)から 17日の 15時(UTC)まで一時的に
変向風 20kt
視程: 3000m
高度3000ftの雲は散在している, 積乱雲.
高度4000ftの雲は散在している
激しい雷雨, 雨
18日の 04時(UTC)から 18日の 06時(UTC)まで徐々に
北西の風 13kt

TAF: LYBE 170500Z 1706/1806 26008KT 9999 SCT040 TX26/1713Z TN18/1803Z TEMPO 1706/1709 VRB20KT 4000 SHRA SCT033TCU BKN040 TEMPO 1711/1715 VRB20KT 3000 TSRA SCT030CB SCT040 BECMG 1804/1806 32013KT

4,000以上の空港の気象観測と天気予報(METAR報とTAF報)

利用可能な観測所は地図上に黄色い丸と赤い丸で示す。

丸の上にカーソルを重ねると観測所名を参照できる。

次にクリックすると気象観測と天気予報を参照できる。

マップの切り替え:黒色「×」印の緑ボタンをクリックして拡大、「-」印の緑ボタンをクリックして縮小、緑色の三角印をクリックして隣りの地図に切り替え


METAR-TAF: